Terminal Aerodrome Forecast
Issued by NWS Birmingham, AL

Home | Current Version | Previous Version | Text Only | Print | Product List | Glossary On
Versions: 1 2 3 4 5 6 7 8 9 10 11 12 13 14
000
FTUS44 KBMX 211723
TAFBHM
TAF
KBHM 211723Z 2118/2218 13012G17KT P6SM SCT250
     FM220100 10008KT P6SM BKN050
     FM220700 12012KT P6SM OVC025
     FM221200 10014G20KT P6SM VCSH OVC025=

USA.gov is the U.S. government's official web portal to all federal, state and local government web resources and services.